sensor_id;sensor_type;location;lat;lon;timestamp;P1;durP1;ratioP1;P2;durP2;ratioP2
43945;SDS011;29599;51.196;4.428;2022-12-18T00:01:23;108.88;;;41.13;;
43945;SDS011;29599;51.196;4.428;2022-12-18T00:03:53;117.72;;;42.08;;
43945;SDS011;29599;51.196;4.428;2022-12-18T00:06:20;108.22;;;41.40;;
43945;SDS011;29599;51.196;4.428;2022-12-18T00:08:47;110.45;;;42.10;;
43945;SDS011;29599;51.196;4.428;2022-12-18T00:11:15;119.78;;;44.47;;
43945;SDS011;29599;51.196;4.428;2022-12-18T00:13:42;114.18;;;45.13;;
43945;SDS011;29599;51.196;4.428;2022-12-18T00:16:09;114.35;;;43.25;;
43945;SDS011;29599;51.196;4.428;2022-12-18T00:18:36;124.18;;;44.40;;
43945;SDS011;29599;51.196;4.428;2022-12-18T00:21:03;120.60;;;43.30;;
43945;SDS011;29599;51.196;4.428;2022-12-18T00:23:30;116.35;;;43.70;;
43945;SDS011;29599;51.196;4.428;2022-12-18T00:26:00;115.30;;;44.03;;
43945;SDS011;29599;51.196;4.428;2022-12-18T00:28:27;115.65;;;45.10;;
43945;SDS011;29599;51.196;4.428;2022-12-18T00:31:02;118.68;;;43.42;;
43945;SDS011;29599;51.196;4.428;2022-12-18T00:33:30;117.05;;;45.03;;
43945;SDS011;29599;51.196;4.428;2022-12-18T00:36:00;121.43;;;45.88;;
43945;SDS011;29599;51.196;4.428;2022-12-18T00:38:26;120.28;;;45.08;;
43945;SDS011;29599;51.196;4.428;2022-12-18T00:40:52;119.75;;;45.97;;
43945;SDS011;29599;51.196;4.428;2022-12-18T00:43:18;116.07;;;44.88;;
43945;SDS011;29599;51.196;4.428;2022-12-18T00:45:43;117.75;;;45.13;;
43945;SDS011;29599;51.196;4.428;2022-12-18T00:48:09;112.57;;;43.90;;
43945;SDS011;29599;51.196;4.428;2022-12-18T00:50:34;116.10;;;44.50;;
43945;SDS011;29599;51.196;4.428;2022-12-18T00:53:00;115.97;;;45.63;;
43945;SDS011;29599;51.196;4.428;2022-12-18T00:55:25;114.28;;;43.33;;
43945;SDS011;29599;51.196;4.428;2022-12-18T00:57:52;116.60;;;44.97;;
43945;SDS011;29599;51.196;4.428;2022-12-18T01:00:17;125.47;;;44.55;;
43945;SDS011;29599;51.196;4.428;2022-12-18T01:02:43;118.90;;;44.92;;
43945;SDS011;29599;51.196;4.428;2022-12-18T01:05:10;119.00;;;44.50;;
43945;SDS011;29599;51.196;4.428;2022-12-18T01:07:36;117.97;;;46.03;;
43945;SDS011;29599;51.196;4.428;2022-12-18T01:10:03;125.35;;;46.42;;
43945;SDS011;29599;51.196;4.428;2022-12-18T01:12:30;126.07;;;46.13;;
43945;SDS011;29599;51.196;4.428;2022-12-18T01:14:55;117.07;;;43.35;;
43945;SDS011;29599;51.196;4.428;2022-12-18T01:17:21;113.15;;;43.22;;
43945;SDS011;29599;51.196;4.428;2022-12-18T01:19:47;112.40;;;42.20;;
43945;SDS011;29599;51.196;4.428;2022-12-18T01:22:12;120.13;;;46.05;;
43945;SDS011;29599;51.196;4.428;2022-12-18T01:24:38;116.63;;;44.65;;
43945;SDS011;29599;51.196;4.428;2022-12-18T01:27:04;124.03;;;44.22;;
43945;SDS011;29599;51.196;4.428;2022-12-18T01:29:29;115.25;;;41.50;;
43945;SDS011;29599;51.196;4.428;2022-12-18T01:31:55;115.75;;;43.65;;
43945;SDS011;29599;51.196;4.428;2022-12-18T01:34:22;124.10;;;46.78;;
43945;SDS011;29599;51.196;4.428;2022-12-18T01:36:48;109.13;;;41.53;;
43945;SDS011;29599;51.196;4.428;2022-12-18T01:39:14;119.38;;;43.67;;
43945;SDS011;29599;51.196;4.428;2022-12-18T01:41:40;116.05;;;43.55;;
43945;SDS011;29599;51.196;4.428;2022-12-18T01:52:35;115.13;;;43.17;;
43945;SDS011;29599;51.196;4.428;2022-12-18T01:55:03;110.90;;;40.80;;
43945;SDS011;29599;51.196;4.428;2022-12-18T01:57:31;87.05;;;31.08;;
43945;SDS011;29599;51.196;4.428;2022-12-18T01:59:59;113.35;;;41.20;;
43945;SDS011;29599;51.196;4.428;2022-12-18T02:02:30;105.95;;;42.05;;
43945;SDS011;29599;51.196;4.428;2022-12-18T02:04:56;85.25;;;33.00;;
43945;SDS011;29599;51.196;4.428;2022-12-18T02:10:27;107.82;;;39.95;;
43945;SDS011;29599;51.196;4.428;2022-12-18T02:15:58;107.97;;;39.80;;
43945;SDS011;29599;51.196;4.428;2022-12-18T02:18:45;92.95;;;37.03;;
43945;SDS011;29599;51.196;4.428;2022-12-18T02:24:04;99.97;;;39.17;;
43945;SDS011;29599;51.196;4.428;2022-12-18T02:27:00;96.22;;;38.13;;
43945;SDS011;29599;51.196;4.428;2022-12-18T02:29:32;104.80;;;38.33;;
43945;SDS011;29599;51.196;4.428;2022-12-18T02:32:06;94.25;;;37.50;;
43945;SDS011;29599;51.196;4.428;2022-12-18T02:34:38;103.88;;;37.38;;
43945;SDS011;29599;51.196;4.428;2022-12-18T02:37:05;95.63;;;35.50;;
43945;SDS011;29599;51.196;4.428;2022-12-18T02:39:37;94.45;;;37.35;;
43945;SDS011;29599;51.196;4.428;2022-12-18T02:42:05;93.97;;;37.03;;
43945;SDS011;29599;51.196;4.428;2022-12-18T02:44:35;105.57;;;37.83;;
43945;SDS011;29599;51.196;4.428;2022-12-18T02:47:09;93.35;;;35.95;;
43945;SDS011;29599;51.196;4.428;2022-12-18T02:49:44;100.97;;;37.90;;
43945;SDS011;29599;51.196;4.428;2022-12-18T02:57:59;87.45;;;34.15;;
43945;SDS011;29599;51.196;4.428;2022-12-18T03:00:31;89.47;;;34.85;;
43945;SDS011;29599;51.196;4.428;2022-12-18T03:03:18;88.80;;;34.15;;
43945;SDS011;29599;51.196;4.428;2022-12-18T03:06:21;91.85;;;34.38;;
43945;SDS011;29599;51.196;4.428;2022-12-18T03:08:48;89.45;;;33.85;;
43945;SDS011;29599;51.196;4.428;2022-12-18T03:11:19;95.15;;;37.35;;
43945;SDS011;29599;51.196;4.428;2022-12-18T03:14:05;83.05;;;32.92;;
43945;SDS011;29599;51.196;4.428;2022-12-18T03:16:32;88.20;;;34.33;;
43945;SDS011;29599;51.196;4.428;2022-12-18T03:19:16;86.45;;;33.10;;
43945;SDS011;29599;51.196;4.428;2022-12-18T03:21:47;86.32;;;33.10;;
43945;SDS011;29599;51.196;4.428;2022-12-18T03:24:20;85.32;;;32.90;;
43945;SDS011;29599;51.196;4.428;2022-12-18T03:26:49;82.75;;;31.92;;
43945;SDS011;29599;51.196;4.428;2022-12-18T03:29:19;81.82;;;31.05;;
43945;SDS011;29599;51.196;4.428;2022-12-18T03:31:51;86.97;;;32.92;;
43945;SDS011;29599;51.196;4.428;2022-12-18T03:34:22;79.80;;;32.03;;
43945;SDS011;29599;51.196;4.428;2022-12-18T03:36:52;88.72;;;32.83;;
43945;SDS011;29599;51.196;4.428;2022-12-18T03:39:18;79.32;;;31.42;;
43945;SDS011;29599;51.196;4.428;2022-12-18T03:44:39;79.72;;;31.40;;
43945;SDS011;29599;51.196;4.428;2022-12-18T03:47:39;79.43;;;32.13;;
43945;SDS011;29599;51.196;4.428;2022-12-18T03:50:16;76.78;;;30.27;;
43945;SDS011;29599;51.196;4.428;2022-12-18T03:52:52;73.28;;;29.17;;
43945;SDS011;29599;51.196;4.428;2022-12-18T03:55:31;83.20;;;29.88;;
43945;SDS011;29599;51.196;4.428;2022-12-18T03:57:59;70.05;;;27.38;;
43945;SDS011;29599;51.196;4.428;2022-12-18T04:00:28;82.68;;;31.00;;
43945;SDS011;29599;51.196;4.428;2022-12-18T04:02:55;75.00;;;30.20;;
43945;SDS011;29599;51.196;4.428;2022-12-18T04:05:25;80.95;;;30.23;;
43945;SDS011;29599;51.196;4.428;2022-12-18T04:07:52;72.82;;;30.48;;
43945;SDS011;29599;51.196;4.428;2022-12-18T04:10:19;66.18;;;28.55;;
43945;SDS011;29599;51.196;4.428;2022-12-18T04:12:45;74.32;;;28.63;;
43945;SDS011;29599;51.196;4.428;2022-12-18T04:15:11;69.47;;;27.92;;
43945;SDS011;29599;51.196;4.428;2022-12-18T04:17:38;70.20;;;28.38;;
43945;SDS011;29599;51.196;4.428;2022-12-18T04:20:08;72.65;;;27.52;;
43945;SDS011;29599;51.196;4.428;2022-12-18T04:22:34;79.50;;;29.80;;
43945;SDS011;29599;51.196;4.428;2022-12-18T04:25:00;68.70;;;27.98;;
43945;SDS011;29599;51.196;4.428;2022-12-18T04:27:26;64.25;;;26.60;;
43945;SDS011;29599;51.196;4.428;2022-12-18T04:29:51;68.28;;;25.88;;
43945;SDS011;29599;51.196;4.428;2022-12-18T04:32:17;68.18;;;27.60;;
43945;SDS011;29599;51.196;4.428;2022-12-18T04:34:42;66.85;;;26.48;;
43945;SDS011;29599;51.196;4.428;2022-12-18T04:37:08;64.47;;;26.60;;
43945;SDS011;29599;51.196;4.428;2022-12-18T04:39:34;64.63;;;25.88;;
43945;SDS011;29599;51.196;4.428;2022-12-18T04:42:00;71.50;;;27.88;;
43945;SDS011;29599;51.196;4.428;2022-12-18T04:44:26;71.25;;;27.58;;
43945;SDS011;29599;51.196;4.428;2022-12-18T04:46:52;64.13;;;27.48;;
43945;SDS011;29599;51.196;4.428;2022-12-18T04:49:17;66.70;;;26.85;;
43945;SDS011;29599;51.196;4.428;2022-12-18T04:51:43;60.70;;;25.02;;
43945;SDS011;29599;51.196;4.428;2022-12-18T04:54:08;67.53;;;25.63;;
43945;SDS011;29599;51.196;4.428;2022-12-18T04:56:34;61.50;;;25.33;;
43945;SDS011;29599;51.196;4.428;2022-12-18T04:58:59;61.05;;;24.25;;
43945;SDS011;29599;51.196;4.428;2022-12-18T05:01:25;64.63;;;25.00;;
43945;SDS011;29599;51.196;4.428;2022-12-18T05:03:51;64.53;;;26.23;;
43945;SDS011;29599;51.196;4.428;2022-12-18T05:06:17;59.40;;;24.55;;
43945;SDS011;29599;51.196;4.428;2022-12-18T05:08:42;60.13;;;25.33;;
43945;SDS011;29599;51.196;4.428;2022-12-18T05:11:09;63.97;;;25.15;;
43945;SDS011;29599;51.196;4.428;2022-12-18T05:13:37;68.80;;;27.40;;
43945;SDS011;29599;51.196;4.428;2022-12-18T05:16:03;72.93;;;28.90;;
43945;SDS011;29599;51.196;4.428;2022-12-18T05:18:29;69.63;;;26.75;;
43945;SDS011;29599;51.196;4.428;2022-12-18T05:20:55;68.70;;;27.13;;
43945;SDS011;29599;51.196;4.428;2022-12-18T05:23:22;66.13;;;26.33;;
43945;SDS011;29599;51.196;4.428;2022-12-18T05:25:52;62.30;;;24.90;;
43945;SDS011;29599;51.196;4.428;2022-12-18T05:28:24;63.88;;;26.50;;
43945;SDS011;29599;51.196;4.428;2022-12-18T05:30:51;67.55;;;26.30;;
43945;SDS011;29599;51.196;4.428;2022-12-18T05:33:18;66.25;;;26.48;;
43945;SDS011;29599;51.196;4.428;2022-12-18T05:35:49;65.47;;;26.77;;
43945;SDS011;29599;51.196;4.428;2022-12-18T05:38:16;66.28;;;25.20;;
43945;SDS011;29599;51.196;4.428;2022-12-18T05:40:42;57.97;;;25.85;;
43945;SDS011;29599;51.196;4.428;2022-12-18T05:43:08;67.93;;;26.08;;
43945;SDS011;29599;51.196;4.428;2022-12-18T05:45:36;61.20;;;25.23;;
43945;SDS011;29599;51.196;4.428;2022-12-18T05:48:03;57.47;;;24.93;;
43945;SDS011;29599;51.196;4.428;2022-12-18T05:50:29;61.80;;;24.63;;
43945;SDS011;29599;51.196;4.428;2022-12-18T05:52:54;59.30;;;25.13;;
43945;SDS011;29599;51.196;4.428;2022-12-18T05:55:20;62.80;;;26.08;;
43945;SDS011;29599;51.196;4.428;2022-12-18T05:57:45;63.55;;;24.67;;
43945;SDS011;29599;51.196;4.428;2022-12-18T06:00:11;62.22;;;25.27;;
43945;SDS011;29599;51.196;4.428;2022-12-18T06:02:37;50.17;;;21.38;;
43945;SDS011;29599;51.196;4.428;2022-12-18T06:05:03;63.70;;;24.48;;
43945;SDS011;29599;51.196;4.428;2022-12-18T06:07:29;65.50;;;26.40;;
43945;SDS011;29599;51.196;4.428;2022-12-18T06:09:55;57.92;;;24.27;;
43945;SDS011;29599;51.196;4.428;2022-12-18T06:12:20;61.35;;;24.55;;
43945;SDS011;29599;51.196;4.428;2022-12-18T06:14:46;57.58;;;24.67;;
43945;SDS011;29599;51.196;4.428;2022-12-18T06:17:11;61.13;;;23.58;;
43945;SDS011;29599;51.196;4.428;2022-12-18T06:19:37;52.58;;;22.58;;
43945;SDS011;29599;51.196;4.428;2022-12-18T06:22:03;60.88;;;24.10;;
43945;SDS011;29599;51.196;4.428;2022-12-18T06:24:29;56.30;;;22.88;;
43945;SDS011;29599;51.196;4.428;2022-12-18T06:26:55;54.03;;;22.67;;
43945;SDS011;29599;51.196;4.428;2022-12-18T06:29:20;60.35;;;24.33;;
43945;SDS011;29599;51.196;4.428;2022-12-18T06:31:46;55.17;;;23.88;;
43945;SDS011;29599;51.196;4.428;2022-12-18T06:34:11;55.92;;;22.60;;
43945;SDS011;29599;51.196;4.428;2022-12-18T06:36:37;50.88;;;21.65;;
43945;SDS011;29599;51.196;4.428;2022-12-18T06:39:03;59.60;;;23.40;;
43945;SDS011;29599;51.196;4.428;2022-12-18T06:41:28;56.00;;;23.23;;
43945;SDS011;29599;51.196;4.428;2022-12-18T06:43:54;47.15;;;21.33;;
43945;SDS011;29599;51.196;4.428;2022-12-18T06:46:19;51.88;;;22.80;;
43945;SDS011;29599;51.196;4.428;2022-12-18T06:48:49;56.25;;;22.23;;
43945;SDS011;29599;51.196;4.428;2022-12-18T06:51:22;52.80;;;21.20;;
43945;SDS011;29599;51.196;4.428;2022-12-18T06:53:48;51.80;;;21.95;;
43945;SDS011;29599;51.196;4.428;2022-12-18T06:56:14;54.47;;;22.60;;
43945;SDS011;29599;51.196;4.428;2022-12-18T06:58:40;56.28;;;22.67;;
43945;SDS011;29599;51.196;4.428;2022-12-18T07:01:08;54.70;;;22.63;;
43945;SDS011;29599;51.196;4.428;2022-12-18T07:03:36;52.05;;;21.58;;
43945;SDS011;29599;51.196;4.428;2022-12-18T07:06:03;56.05;;;21.10;;
43945;SDS011;29599;51.196;4.428;2022-12-18T07:08:29;50.00;;;20.63;;
43945;SDS011;29599;51.196;4.428;2022-12-18T07:10:55;50.28;;;21.63;;
43945;SDS011;29599;51.196;4.428;2022-12-18T07:13:21;51.20;;;20.77;;
43945;SDS011;29599;51.196;4.428;2022-12-18T07:15:47;45.97;;;20.58;;
43945;SDS011;29599;51.196;4.428;2022-12-18T07:18:13;53.30;;;21.33;;
43945;SDS011;29599;51.196;4.428;2022-12-18T07:20:38;48.08;;;20.95;;
43945;SDS011;29599;51.196;4.428;2022-12-18T07:23:04;50.80;;;20.38;;
43945;SDS011;29599;51.196;4.428;2022-12-18T07:25:34;52.05;;;20.92;;
43945;SDS011;29599;51.196;4.428;2022-12-18T07:30:25;43.13;;;18.40;;
43945;SDS011;29599;51.196;4.428;2022-12-18T07:32:51;45.85;;;19.75;;
43945;SDS011;29599;51.196;4.428;2022-12-18T07:35:16;48.58;;;20.02;;
43945;SDS011;29599;51.196;4.428;2022-12-18T07:37:42;51.55;;;22.02;;
43945;SDS011;29599;51.196;4.428;2022-12-18T07:40:08;55.58;;;19.88;;
43945;SDS011;29599;51.196;4.428;2022-12-18T07:42:34;47.97;;;20.60;;
43945;SDS011;29599;51.196;4.428;2022-12-18T07:45:01;49.15;;;20.27;;
43945;SDS011;29599;51.196;4.428;2022-12-18T07:47:27;48.92;;;20.92;;
43945;SDS011;29599;51.196;4.428;2022-12-18T07:49:53;53.20;;;21.17;;
43945;SDS011;29599;51.196;4.428;2022-12-18T07:52:19;49.28;;;19.90;;
43945;SDS011;29599;51.196;4.428;2022-12-18T07:54:45;47.08;;;20.67;;
43945;SDS011;29599;51.196;4.428;2022-12-18T07:57:13;46.88;;;20.65;;
43945;SDS011;29599;51.196;4.428;2022-12-18T07:59:39;48.13;;;20.95;;
43945;SDS011;29599;51.196;4.428;2022-12-18T08:02:05;45.60;;;19.10;;
43945;SDS011;29599;51.196;4.428;2022-12-18T08:04:31;47.55;;;20.50;;
43945;SDS011;29599;51.196;4.428;2022-12-18T08:06:56;51.33;;;20.92;;
43945;SDS011;29599;51.196;4.428;2022-12-18T08:09:22;50.08;;;18.40;;
43945;SDS011;29599;51.196;4.428;2022-12-18T08:11:47;49.42;;;20.88;;
43945;SDS011;29599;51.196;4.428;2022-12-18T08:14:13;47.08;;;19.30;;
43945;SDS011;29599;51.196;4.428;2022-12-18T08:16:39;44.50;;;19.52;;
43945;SDS011;29599;51.196;4.428;2022-12-18T08:19:05;52.08;;;19.85;;
43945;SDS011;29599;51.196;4.428;2022-12-18T08:21:30;47.97;;;19.95;;
43945;SDS011;29599;51.196;4.428;2022-12-18T08:24:00;41.80;;;18.90;;
43945;SDS011;29599;51.196;4.428;2022-12-18T08:26:28;46.10;;;19.55;;
43945;SDS011;29599;51.196;4.428;2022-12-18T08:28:55;41.30;;;17.60;;
43945;SDS011;29599;51.196;4.428;2022-12-18T08:31:23;44.38;;;18.92;;
43945;SDS011;29599;51.196;4.428;2022-12-18T08:33:50;40.83;;;18.48;;
43945;SDS011;29599;51.196;4.428;2022-12-18T08:36:18;37.33;;;16.88;;
43945;SDS011;29599;51.196;4.428;2022-12-18T08:38:44;40.40;;;18.90;;
43945;SDS011;29599;51.196;4.428;2022-12-18T08:41:11;41.67;;;19.08;;
43945;SDS011;29599;51.196;4.428;2022-12-18T08:43:38;40.88;;;17.80;;
43945;SDS011;29599;51.196;4.428;2022-12-18T08:46:23;41.08;;;17.98;;
43945;SDS011;29599;51.196;4.428;2022-12-18T08:48:51;40.80;;;17.13;;
43945;SDS011;29599;51.196;4.428;2022-12-18T08:51:17;41.17;;;18.73;;
43945;SDS011;29599;51.196;4.428;2022-12-18T08:53:43;44.03;;;19.83;;
43945;SDS011;29599;51.196;4.428;2022-12-18T08:56:09;47.03;;;18.88;;
43945;SDS011;29599;51.196;4.428;2022-12-18T08:58:35;45.03;;;17.50;;
43945;SDS011;29599;51.196;4.428;2022-12-18T09:01:06;42.30;;;17.27;;
43945;SDS011;29599;51.196;4.428;2022-12-18T09:03:34;43.70;;;17.55;;
43945;SDS011;29599;51.196;4.428;2022-12-18T09:06:00;46.75;;;18.63;;
43945;SDS011;29599;51.196;4.428;2022-12-18T09:08:26;38.00;;;16.27;;
43945;SDS011;29599;51.196;4.428;2022-12-18T09:10:52;38.65;;;19.23;;
43945;SDS011;29599;51.196;4.428;2022-12-18T09:13:18;39.22;;;17.70;;
43945;SDS011;29599;51.196;4.428;2022-12-18T09:15:44;38.50;;;18.60;;
43945;SDS011;29599;51.196;4.428;2022-12-18T09:18:15;38.90;;;18.23;;
43945;SDS011;29599;51.196;4.428;2022-12-18T09:20:43;41.55;;;18.30;;
43945;SDS011;29599;51.196;4.428;2022-12-18T09:23:09;34.50;;;16.83;;
43945;SDS011;29599;51.196;4.428;2022-12-18T09:25:35;40.22;;;17.60;;
43945;SDS011;29599;51.196;4.428;2022-12-18T09:28:02;40.85;;;18.13;;
43945;SDS011;29599;51.196;4.428;2022-12-18T09:30:29;37.53;;;18.10;;
43945;SDS011;29599;51.196;4.428;2022-12-18T09:32:55;42.90;;;18.55;;
43945;SDS011;29599;51.196;4.428;2022-12-18T09:35:21;37.47;;;16.88;;
43945;SDS011;29599;51.196;4.428;2022-12-18T09:37:46;33.47;;;16.65;;
43945;SDS011;29599;51.196;4.428;2022-12-18T09:40:13;43.70;;;17.60;;
43945;SDS011;29599;51.196;4.428;2022-12-18T09:42:41;39.75;;;17.42;;
43945;SDS011;29599;51.196;4.428;2022-12-18T09:45:13;36.63;;;16.50;;
43945;SDS011;29599;51.196;4.428;2022-12-18T09:47:41;38.75;;;17.23;;
43945;SDS011;29599;51.196;4.428;2022-12-18T09:50:16;37.67;;;17.50;;
43945;SDS011;29599;51.196;4.428;2022-12-18T09:52:48;39.30;;;16.58;;
43945;SDS011;29599;51.196;4.428;2022-12-18T09:55:23;38.97;;;17.55;;
43945;SDS011;29599;51.196;4.428;2022-12-18T09:58:24;35.65;;;17.65;;
43945;SDS011;29599;51.196;4.428;2022-12-18T10:00:52;41.95;;;18.08;;
43945;SDS011;29599;51.196;4.428;2022-12-18T10:03:18;38.10;;;17.60;;
43945;SDS011;29599;51.196;4.428;2022-12-18T10:06:06;44.63;;;18.85;;
43945;SDS011;29599;51.196;4.428;2022-12-18T10:08:43;37.90;;;17.48;;
43945;SDS011;29599;51.196;4.428;2022-12-18T10:11:21;35.58;;;16.42;;
43945;SDS011;29599;51.196;4.428;2022-12-18T10:16:47;35.55;;;17.98;;
43945;SDS011;29599;51.196;4.428;2022-12-18T10:19:30;34.72;;;17.27;;
43945;SDS011;29599;51.196;4.428;2022-12-18T10:24:37;32.63;;;15.75;;
43945;SDS011;29599;51.196;4.428;2022-12-18T10:27:16;45.10;;;20.10;;
43945;SDS011;29599;51.196;4.428;2022-12-18T10:29:46;40.72;;;18.98;;
43945;SDS011;29599;51.196;4.428;2022-12-18T10:32:16;45.30;;;19.83;;
43945;SDS011;29599;51.196;4.428;2022-12-18T10:34:50;44.85;;;20.58;;
43945;SDS011;29599;51.196;4.428;2022-12-18T10:37:18;44.95;;;18.38;;
43945;SDS011;29599;51.196;4.428;2022-12-18T10:39:47;31.77;;;15.63;;
43945;SDS011;29599;51.196;4.428;2022-12-18T10:42:34;30.15;;;15.30;;
43945;SDS011;29599;51.196;4.428;2022-12-18T10:47:36;30.15;;;15.45;;
43945;SDS011;29599;51.196;4.428;2022-12-18T10:50:17;30.73;;;14.18;;
43945;SDS011;29599;51.196;4.428;2022-12-18T10:52:58;34.42;;;15.65;;
43945;SDS011;29599;51.196;4.428;2022-12-18T10:55:38;33.38;;;15.65;;
43945;SDS011;29599;51.196;4.428;2022-12-18T11:01:11;34.78;;;15.93;;
43945;SDS011;29599;51.196;4.428;2022-12-18T11:06:20;32.47;;;16.23;;
43945;SDS011;29599;51.196;4.428;2022-12-18T11:11:53;30.58;;;14.70;;
43945;SDS011;29599;51.196;4.428;2022-12-18T11:16:57;34.40;;;16.23;;
43945;SDS011;29599;51.196;4.428;2022-12-18T11:19:29;32.55;;;15.80;;
43945;SDS011;29599;51.196;4.428;2022-12-18T11:21:56;31.90;;;15.85;;
43945;SDS011;29599;51.196;4.428;2022-12-18T11:24:35;31.95;;;14.93;;
43945;SDS011;29599;51.196;4.428;2022-12-18T11:27:03;33.10;;;16.07;;
43945;SDS011;29599;51.196;4.428;2022-12-18T11:34:41;30.63;;;15.55;;
43945;SDS011;29599;51.196;4.428;2022-12-18T11:37:13;29.98;;;16.02;;
43945;SDS011;29599;51.196;4.428;2022-12-18T11:39:52;33.88;;;16.35;;
43945;SDS011;29599;51.196;4.428;2022-12-18T11:47:44;34.10;;;16.00;;
43945;SDS011;29599;51.196;4.428;2022-12-18T11:50:14;34.03;;;16.90;;
43945;SDS011;29599;51.196;4.428;2022-12-18T11:52:43;31.65;;;16.17;;
43945;SDS011;29599;51.196;4.428;2022-12-18T11:55:19;32.40;;;16.45;;
43945;SDS011;29599;51.196;4.428;2022-12-18T12:04:17;33.42;;;16.08;;
43945;SDS011;29599;51.196;4.428;2022-12-18T12:07:12;31.10;;;15.73;;
43945;SDS011;29599;51.196;4.428;2022-12-18T12:10:32;29.70;;;15.88;;
43945;SDS011;29599;51.196;4.428;2022-12-18T12:13:23;35.78;;;17.17;;
43945;SDS011;29599;51.196;4.428;2022-12-18T12:16:03;35.45;;;16.15;;
43945;SDS011;29599;51.196;4.428;2022-12-18T12:21:04;32.00;;;16.02;;
43945;SDS011;29599;51.196;4.428;2022-12-18T12:26:07;29.90;;;16.35;;
43945;SDS011;29599;51.196;4.428;2022-12-18T12:39:30;36.35;;;17.05;;
43945;SDS011;29599;51.196;4.428;2022-12-18T12:42:00;30.92;;;15.48;;
43945;SDS011;29599;51.196;4.428;2022-12-18T12:44:48;33.13;;;16.27;;
43945;SDS011;29599;51.196;4.428;2022-12-18T12:47:23;32.20;;;15.07;;
43945;SDS011;29599;51.196;4.428;2022-12-18T12:49:53;32.60;;;15.65;;
43945;SDS011;29599;51.196;4.428;2022-12-18T12:54:58;32.35;;;14.93;;
43945;SDS011;29599;51.196;4.428;2022-12-18T12:57:37;33.25;;;16.40;;
43945;SDS011;29599;51.196;4.428;2022-12-18T13:00:12;30.92;;;16.13;;
43945;SDS011;29599;51.196;4.428;2022-12-18T13:02:50;36.17;;;16.02;;
43945;SDS011;29599;51.196;4.428;2022-12-18T13:05:24;33.50;;;16.98;;
43945;SDS011;29599;51.196;4.428;2022-12-18T13:10:35;30.63;;;14.82;;
43945;SDS011;29599;51.196;4.428;2022-12-18T13:18:33;35.78;;;18.20;;
43945;SDS011;29599;51.196;4.428;2022-12-18T13:31:11;35.50;;;16.30;;
43945;SDS011;29599;51.196;4.428;2022-12-18T13:36:50;36.95;;;17.77;;
43945;SDS011;29599;51.196;4.428;2022-12-18T13:41:47;36.30;;;18.23;;
43945;SDS011;29599;51.196;4.428;2022-12-18T13:46:50;33.13;;;17.15;;
43945;SDS011;29599;51.196;4.428;2022-12-18T13:51:53;36.78;;;16.75;;
43945;SDS011;29599;51.196;4.428;2022-12-18T13:56:51;38.22;;;16.95;;
43945;SDS011;29599;51.196;4.428;2022-12-18T13:59:18;35.70;;;18.92;;
43945;SDS011;29599;51.196;4.428;2022-12-18T14:04:18;32.05;;;16.83;;
43945;SDS011;29599;51.196;4.428;2022-12-18T14:06:53;34.33;;;17.15;;
43945;SDS011;29599;51.196;4.428;2022-12-18T14:09:44;32.83;;;16.63;;
43945;SDS011;29599;51.196;4.428;2022-12-18T14:12:24;33.53;;;17.67;;
43945;SDS011;29599;51.196;4.428;2022-12-18T14:20:44;37.88;;;19.05;;
43945;SDS011;29599;51.196;4.428;2022-12-18T14:25:57;49.70;;;21.08;;
43945;SDS011;29599;51.196;4.428;2022-12-18T14:28:23;32.50;;;18.40;;
43945;SDS011;29599;51.196;4.428;2022-12-18T14:30:51;45.30;;;20.52;;
43945;SDS011;29599;51.196;4.428;2022-12-18T14:33:18;40.22;;;20.08;;
43945;SDS011;29599;51.196;4.428;2022-12-18T14:35:56;44.20;;;20.80;;
43945;SDS011;29599;51.196;4.428;2022-12-18T14:38:30;42.17;;;20.63;;
43945;SDS011;29599;51.196;4.428;2022-12-18T14:41:01;41.72;;;20.08;;
43945;SDS011;29599;51.196;4.428;2022-12-18T14:43:37;37.90;;;18.77;;
43945;SDS011;29599;51.196;4.428;2022-12-18T14:46:05;39.47;;;18.75;;
43945;SDS011;29599;51.196;4.428;2022-12-18T14:48:50;38.30;;;18.70;;
43945;SDS011;29599;51.196;4.428;2022-12-18T14:51:20;36.00;;;18.73;;
43945;SDS011;29599;51.196;4.428;2022-12-18T14:53:53;41.67;;;19.63;;
43945;SDS011;29599;51.196;4.428;2022-12-18T14:56:24;38.60;;;19.35;;
43945;SDS011;29599;51.196;4.428;2022-12-18T14:58:59;37.60;;;20.27;;
43945;SDS011;29599;51.196;4.428;2022-12-18T15:01:49;34.70;;;18.13;;
43945;SDS011;29599;51.196;4.428;2022-12-18T15:10:03;36.22;;;18.85;;
43945;SDS011;29599;51.196;4.428;2022-12-18T15:12:43;39.22;;;19.45;;
43945;SDS011;29599;51.196;4.428;2022-12-18T15:18:02;36.92;;;19.50;;
43945;SDS011;29599;51.196;4.428;2022-12-18T15:20:31;35.42;;;19.50;;
43945;SDS011;29599;51.196;4.428;2022-12-18T15:23:04;38.80;;;20.27;;
43945;SDS011;29599;51.196;4.428;2022-12-18T15:25:37;38.65;;;19.50;;
43945;SDS011;29599;51.196;4.428;2022-12-18T15:28:03;43.83;;;21.75;;
43945;SDS011;29599;51.196;4.428;2022-12-18T15:30:40;44.58;;;22.15;;
43945;SDS011;29599;51.196;4.428;2022-12-18T15:33:35;38.53;;;20.30;;
43945;SDS011;29599;51.196;4.428;2022-12-18T15:36:23;40.97;;;20.27;;
43945;SDS011;29599;51.196;4.428;2022-12-18T15:38:49;38.60;;;20.05;;
43945;SDS011;29599;51.196;4.428;2022-12-18T15:41:20;41.05;;;20.77;;
43945;SDS011;29599;51.196;4.428;2022-12-18T15:43:47;46.35;;;22.38;;
43945;SDS011;29599;51.196;4.428;2022-12-18T15:46:16;42.80;;;22.02;;
43945;SDS011;29599;51.196;4.428;2022-12-18T15:48:49;44.53;;;21.02;;
43945;SDS011;29599;51.196;4.428;2022-12-18T15:51:17;44.92;;;20.65;;
43945;SDS011;29599;51.196;4.428;2022-12-18T15:53:45;45.88;;;21.90;;
43945;SDS011;29599;51.196;4.428;2022-12-18T15:56:12;45.78;;;21.70;;
43945;SDS011;29599;51.196;4.428;2022-12-18T15:58:57;45.50;;;20.77;;
43945;SDS011;29599;51.196;4.428;2022-12-18T16:01:27;47.30;;;23.40;;
43945;SDS011;29599;51.196;4.428;2022-12-18T16:03:54;44.13;;;21.55;;
43945;SDS011;29599;51.196;4.428;2022-12-18T16:06:20;50.70;;;23.77;;
43945;SDS011;29599;51.196;4.428;2022-12-18T16:08:46;45.35;;;22.33;;
43945;SDS011;29599;51.196;4.428;2022-12-18T16:11:26;48.78;;;22.42;;
43945;SDS011;29599;51.196;4.428;2022-12-18T16:16:45;45.75;;;22.52;;
43945;SDS011;29599;51.196;4.428;2022-12-18T16:19:12;45.58;;;22.92;;
43945;SDS011;29599;51.196;4.428;2022-12-18T16:21:38;46.88;;;22.30;;
43945;SDS011;29599;51.196;4.428;2022-12-18T16:24:04;48.30;;;22.95;;
43945;SDS011;29599;51.196;4.428;2022-12-18T16:26:30;53.03;;;24.02;;
43945;SDS011;29599;51.196;4.428;2022-12-18T16:28:55;50.17;;;22.75;;
43945;SDS011;29599;51.196;4.428;2022-12-18T16:31:21;48.75;;;22.98;;
43945;SDS011;29599;51.196;4.428;2022-12-18T16:33:47;49.40;;;22.83;;
43945;SDS011;29599;51.196;4.428;2022-12-18T16:36:12;49.47;;;23.33;;
43945;SDS011;29599;51.196;4.428;2022-12-18T16:38:38;49.28;;;24.17;;
43945;SDS011;29599;51.196;4.428;2022-12-18T16:41:10;52.83;;;23.38;;
43945;SDS011;29599;51.196;4.428;2022-12-18T16:43:58;52.25;;;23.77;;
43945;SDS011;29599;51.196;4.428;2022-12-18T16:46:25;54.58;;;23.20;;
43945;SDS011;29599;51.196;4.428;2022-12-18T16:48:50;50.25;;;23.08;;
43945;SDS011;29599;51.196;4.428;2022-12-18T16:51:16;47.63;;;23.15;;